Terminal Aerodrome Forecast
Issued by NWS

Home | Current Version | Previous Version | Text Only | Print | Product List | Glossary Off
Versions: 1 2 3 4 5 6 7 8 9 10 11 12 13 14

000
FTUS43 KOAX 191743
TAFCDR
TAF
KCDR 191743Z 1918/2018 36015KT 4SM -RA BR OVC015
     FM192100 03010KT 3SM -RA OVC010
     FM200100 03008KT 4SM -RA OVC025
     FM200200 VRB04KT P6SM OVC050
     FM200900 30002KT 2SM BR BKN100
     FM201400 11006KT P6SM OVC250=

USA.gov is the U.S. government's official web portal to all federal, state and local government web resources and services.